Jamie Marie — WDE7178 — position and weather

sailwx.info

Track history (hours):
 
Tides and Currents Weather Stations Pressure Air Temp Water Temp Dewpoint Dewpoint Depression Visibility Wind Speed Wind Dir Waves Ship Positions

Jamie Marie

More information available from US FCC via Universal Licensing System and Coast Guard Vessel Documentation Center.

Last reported at 2014-Aug-27 09:15 UTC. Time now 2014-Aug-28 01:23 UTC.
Position N 46°54' W 124°06'.

Length 30 m.

Type: Fishing. MMSI: 366425240.

Date/timePositionNaut miles runAvg speedWind from/ knotsBaromVisibWave heightAir tempDewpointWater temp
2014-Aug-27 09:15N 46°54' W 124°06'0 0.0
2014-Aug-27 04:31N 46°54' W 124°06'  
2014-Aug-19 07:28N 46°03' W 124°31'8 8.6
2014-Aug-19 06:33N 46°11' W 124°32'9 8.8
2014-Aug-19 05:33N 46°20' W 124°33'9 9.4
2014-Aug-19 04:34N 46°29' W 124°32'10 9.6
2014-Aug-19 03:33N 46°39' W 124°32'24 1.4
2014-Aug-18 10:30N 46°54' W 124°06'0 0.1
2014-Aug-18 09:33N 46°54' W 124°06'0 0.0
2014-Aug-18 08:34N 46°54' W 124°06'0 0.0
2014-Aug-18 07:33N 46°54' W 124°06'0 0.0
2014-Aug-18 06:20N 46°54' W 124°06'0 0.0
2014-Aug-18 05:33N 46°54' W 124°06'0 0.0
2014-Aug-18 04:33N 46°54' W 124°06'0 0.0
2014-Aug-18 03:33N 46°54' W 124°06'50 5.6
2014-Aug-17 18:33N 46°04' W 124°11'7 7.2
2014-Aug-17 17:33N 45°57' W 124°10'7 7.3
2014-Aug-17 16:33N 45°50' W 124°10'7 7.1
2014-Aug-17 15:33N 45°43' W 124°10'8 6.7
2014-Aug-17 14:22N 45°35' W 124°10'  
Track history (hours):
 
Tides and Currents Weather Stations Pressure Air Temp Water Temp Dewpoint Dewpoint Depression Visibility Wind Speed Wind Dir Waves Ship Positions

Jamie Marie

More information available from US FCC via Universal Licensing System and Coast Guard Vessel Documentation Center.

Last reported at 2014-Aug-27 09:15 UTC. Time now 2014-Aug-28 01:23 UTC.
Position N 46°54' W 124°06'.

Length 30 m.

Type: Fishing. MMSI: 366425240.

Date/timePositionNaut miles runAvg speedWind from/ knotsBaromVisibWave heightAir tempDewpointWater temp
2014-Aug-27 09:15N 46°54' W 124°06'0 0.0
2014-Aug-27 04:31N 46°54' W 124°06'  
2014-Aug-19 07:28N 46°03' W 124°31'8 8.6
2014-Aug-19 06:33N 46°11' W 124°32'9 8.8
2014-Aug-19 05:33N 46°20' W 124°33'9 9.4
2014-Aug-19 04:34N 46°29' W 124°32'10 9.6
2014-Aug-19 03:33N 46°39' W 124°32'24 1.4
2014-Aug-18 10:30N 46°54' W 124°06'0 0.1
2014-Aug-18 09:33N 46°54' W 124°06'0 0.0
2014-Aug-18 08:34N 46°54' W 124°06'0 0.0
2014-Aug-18 07:33N 46°54' W 124°06'0 0.0
2014-Aug-18 06:20N 46°54' W 124°06'0 0.0
2014-Aug-18 05:33N 46°54' W 124°06'0 0.0
2014-Aug-18 04:33N 46°54' W 124°06'0 0.0
2014-Aug-18 03:33N 46°54' W 124°06'50 5.6
2014-Aug-17 18:33N 46°04' W 124°11'7 7.2
2014-Aug-17 17:33N 45°57' W 124°10'7 7.3
2014-Aug-17 16:33N 45°50' W 124°10'7 7.1
2014-Aug-17 15:33N 45°43' W 124°10'8 6.7
2014-Aug-17 14:22N 45°35' W 124°10'  

Dump ship's entire track history